Klauhau Airstrip


Codes: AYLH/
Name: Klauhau Airstrip
City: Klauhau
Country: Papua New Guinea
Elevation: 130 ft.

Photos at Klauhau Airstrip


   Photos courtesy of SpottingLog. You can add your own sightings and photos by signing up for a free trial today.



No photos found.

Weather at Klauhau Airstrip


Time (UTC)DescriptionTempratureWindCloud coverageVisibilityPressureHumidity
15-Apr-2024 18:00Moderate Rain24°C2 mph, SW100%10000m1010hPa100%
15-Apr-2024 21:00Light Rain23°C0 mph, W93%10000m1011hPa100%
16-Apr-2024 00:00Overcast Clouds29°C2 mph, NW94%10000m1012hPa76%
16-Apr-2024 03:00Overcast Clouds33°C2 mph, NE100%10000m1008hPa57%
16-Apr-2024 06:00Light Rain31°C2 mph, NE100%10000m1006hPa68%
16-Apr-2024 09:00Light Rain25°C2 mph, E99%10000m1008hPa95%
16-Apr-2024 12:00Moderate Rain24°C2 mph, E100%10000m1010hPa98%
16-Apr-2024 15:00Moderate Rain24°C2 mph, E100%10000m1009hPa99%
16-Apr-2024 18:00Light Rain23°C0 mph, E100%10000m1008hPa99%
16-Apr-2024 21:00Light Rain23°C0 mph, N100%10000m1010hPa99%
17-Apr-2024 00:00Overcast Clouds28°C2 mph, SW100%10000m1011hPa77%
17-Apr-2024 03:00Overcast Clouds33°C2 mph, S100%10000m1007hPa56%
17-Apr-2024 06:00Light Rain27°C4 mph, NE99%10000m1005hPa95%
17-Apr-2024 09:00Moderate Rain25°C4 mph, E99%4186m1007hPa98%
17-Apr-2024 12:00Moderate Rain24°C2 mph, E100%5248m1009hPa97%
17-Apr-2024 15:00Light Rain24°C2 mph, N100%10000m1008hPa98%
17-Apr-2024 18:00Light Rain23°C2 mph, N100%10000m1008hPa99%
17-Apr-2024 21:00Light Rain23°C2 mph, NW100%10000m1010hPa100%
18-Apr-2024 00:00Light Rain28°C0 mph, W97%10000m1011hPa79%
18-Apr-2024 03:00Light Rain29°C0 mph, SW84%10000m1008hPa80%
18-Apr-2024 06:00Light Rain28°C2 mph, E68%6369m1006hPa94%
18-Apr-2024 09:00Light Rain25°C2 mph, NE100%10000m1007hPa97%
18-Apr-2024 12:00Light Rain24°C2 mph, NE100%10000m1009hPa98%
18-Apr-2024 15:00Light Rain23°C2 mph, NE100%10000m1009hPa99%
18-Apr-2024 18:00Light Rain23°C2 mph, NE100%10000m1008hPa99%
18-Apr-2024 21:00Light Rain23°C2 mph, NW99%10000m1010hPa99%
19-Apr-2024 00:00Light Rain23°C2 mph, NW100%10000m1012hPa99%
19-Apr-2024 03:00Light Rain24°C4 mph, W100%10000m1010hPa99%
19-Apr-2024 06:00Light Rain25°C4 mph, W100%10000m1008hPa88%
19-Apr-2024 09:00Broken Clouds23°C2 mph, W64%10000m1009hPa98%
19-Apr-2024 12:00Broken Clouds23°C0 mph, SW68%10000m1011hPa99%
19-Apr-2024 15:00Overcast Clouds23°C0 mph, NW100%10000m1010hPa98%
19-Apr-2024 18:00Overcast Clouds22°C2 mph, W100%10000m1009hPa100%
19-Apr-2024 21:00Overcast Clouds22°C2 mph, W98%10000m1011hPa99%
20-Apr-2024 00:00Overcast Clouds28°C2 mph, W99%10000m1012hPa71%
20-Apr-2024 03:00Broken Clouds33°C0 mph, W61%10000m1008hPa51%
20-Apr-2024 06:00Scattered Clouds34°C0 mph, NW43%10000m1005hPa48%
20-Apr-2024 09:00Scattered Clouds27°C0 mph, SE34%10000m1007hPa76%
20-Apr-2024 12:00Broken Clouds25°C2 mph, NE56%10000m1010hPa87%
20-Apr-2024 15:00Light Rain24°C0 mph, NE96%10000m1009hPa97%